sensor_id;sensor_type;location;lat;lon;timestamp;P1;durP1;ratioP1;P2;durP2;ratioP2
68377;SDS011;55322;48.146;11.516;2022-08-19T00:01:32;7.10;;;3.92;;
68377;SDS011;55322;48.146;11.516;2022-08-19T00:04:00;6.88;;;3.42;;
68377;SDS011;55322;48.146;11.516;2022-08-19T00:06:28;7.53;;;3.67;;
68377;SDS011;55322;48.146;11.516;2022-08-19T00:08:54;6.73;;;3.47;;
68377;SDS011;55322;48.146;11.516;2022-08-19T00:11:21;7.85;;;4.03;;
68377;SDS011;55322;48.146;11.516;2022-08-19T00:13:47;8.65;;;4.38;;
68377;SDS011;55322;48.146;11.516;2022-08-19T00:16:15;8.55;;;4.45;;
68377;SDS011;55322;48.146;11.516;2022-08-19T00:18:45;9.35;;;4.88;;
68377;SDS011;55322;48.146;11.516;2022-08-19T00:21:12;8.10;;;4.40;;
68377;SDS011;55322;48.146;11.516;2022-08-19T00:23:38;8.15;;;4.32;;
68377;SDS011;55322;48.146;11.516;2022-08-19T00:26:04;8.93;;;4.67;;
68377;SDS011;55322;48.146;11.516;2022-08-19T00:28:30;9.40;;;4.93;;
68377;SDS011;55322;48.146;11.516;2022-08-19T00:30:57;9.38;;;4.95;;
68377;SDS011;55322;48.146;11.516;2022-08-19T00:33:23;8.48;;;4.78;;
68377;SDS011;55322;48.146;11.516;2022-08-19T00:35:49;9.27;;;5.03;;
68377;SDS011;55322;48.146;11.516;2022-08-19T00:38:14;8.57;;;4.80;;
68377;SDS011;55322;48.146;11.516;2022-08-19T00:40:40;8.93;;;4.80;;
68377;SDS011;55322;48.146;11.516;2022-08-19T00:43:11;9.63;;;4.82;;
68377;SDS011;55322;48.146;11.516;2022-08-19T00:45:38;10.05;;;5.60;;
68377;SDS011;55322;48.146;11.516;2022-08-19T00:48:08;9.67;;;5.33;;
68377;SDS011;55322;48.146;11.516;2022-08-19T00:50:34;10.23;;;5.70;;
68377;SDS011;55322;48.146;11.516;2022-08-19T00:53:00;9.90;;;5.43;;
68377;SDS011;55322;48.146;11.516;2022-08-19T00:55:29;10.65;;;5.80;;
68377;SDS011;55322;48.146;11.516;2022-08-19T00:57:58;10.15;;;5.75;;
68377;SDS011;55322;48.146;11.516;2022-08-19T01:00:26;11.90;;;6.17;;
68377;SDS011;55322;48.146;11.516;2022-08-19T01:02:53;10.75;;;6.15;;
68377;SDS011;55322;48.146;11.516;2022-08-19T01:05:20;10.07;;;6.20;;
68377;SDS011;55322;48.146;11.516;2022-08-19T01:07:49;12.45;;;5.50;;
68377;SDS011;55322;48.146;11.516;2022-08-19T01:10:16;11.07;;;6.70;;
68377;SDS011;55322;48.146;11.516;2022-08-19T01:12:44;10.90;;;6.22;;
68377;SDS011;55322;48.146;11.516;2022-08-19T01:15:12;12.05;;;6.40;;
68377;SDS011;55322;48.146;11.516;2022-08-19T01:17:41;11.27;;;7.00;;
68377;SDS011;55322;48.146;11.516;2022-08-19T01:20:15;13.07;;;7.68;;
68377;SDS011;55322;48.146;11.516;2022-08-19T01:22:44;11.60;;;7.00;;
68377;SDS011;55322;48.146;11.516;2022-08-19T01:25:18;12.27;;;7.55;;
68377;SDS011;55322;48.146;11.516;2022-08-19T01:30:15;12.87;;;7.63;;
68377;SDS011;55322;48.146;11.516;2022-08-19T01:32:44;13.47;;;8.00;;
68377;SDS011;55322;48.146;11.516;2022-08-19T01:35:09;12.57;;;8.13;;
68377;SDS011;55322;48.146;11.516;2022-08-19T01:37:43;14.70;;;8.30;;
68377;SDS011;55322;48.146;11.516;2022-08-19T01:40:09;12.73;;;8.05;;
68377;SDS011;55322;48.146;11.516;2022-08-19T01:42:35;13.90;;;8.07;;
68377;SDS011;55322;48.146;11.516;2022-08-19T01:45:00;12.30;;;7.40;;
68377;SDS011;55322;48.146;11.516;2022-08-19T01:47:25;12.00;;;7.50;;
68377;SDS011;55322;48.146;11.516;2022-08-19T01:49:51;13.85;;;7.60;;
68377;SDS011;55322;48.146;11.516;2022-08-19T01:52:16;12.50;;;7.87;;
68377;SDS011;55322;48.146;11.516;2022-08-19T01:54:41;11.50;;;7.00;;
68377;SDS011;55322;48.146;11.516;2022-08-19T01:57:08;13.47;;;7.80;;
68377;SDS011;55322;48.146;11.516;2022-08-19T01:59:36;11.93;;;7.40;;
68377;SDS011;55322;48.146;11.516;2022-08-19T02:02:03;12.07;;;7.20;;
68377;SDS011;55322;48.146;11.516;2022-08-19T02:04:33;12.60;;;7.00;;
68377;SDS011;55322;48.146;11.516;2022-08-19T02:07:00;12.32;;;6.68;;
68377;SDS011;55322;48.146;11.516;2022-08-19T02:09:25;11.87;;;6.70;;
68377;SDS011;55322;48.146;11.516;2022-08-19T02:11:50;10.83;;;6.57;;
68377;SDS011;55322;48.146;11.516;2022-08-19T02:14:16;11.00;;;6.53;;
68377;SDS011;55322;48.146;11.516;2022-08-19T02:16:41;11.07;;;6.40;;
68377;SDS011;55322;48.146;11.516;2022-08-19T02:19:06;11.38;;;6.55;;
68377;SDS011;55322;48.146;11.516;2022-08-19T02:21:32;10.50;;;6.33;;
68377;SDS011;55322;48.146;11.516;2022-08-19T02:23:58;11.40;;;6.25;;
68377;SDS011;55322;48.146;11.516;2022-08-19T02:26:24;9.67;;;5.63;;
68377;SDS011;55322;48.146;11.516;2022-08-19T02:28:51;11.02;;;5.95;;
68377;SDS011;55322;48.146;11.516;2022-08-19T02:31:18;10.45;;;5.85;;
68377;SDS011;55322;48.146;11.516;2022-08-19T02:33:46;9.98;;;5.97;;
68377;SDS011;55322;48.146;11.516;2022-08-19T02:36:12;10.27;;;6.03;;
68377;SDS011;55322;48.146;11.516;2022-08-19T02:38:39;11.85;;;6.35;;
68377;SDS011;55322;48.146;11.516;2022-08-19T02:41:06;9.93;;;6.07;;
68377;SDS011;55322;48.146;11.516;2022-08-19T02:43:51;12.03;;;5.87;;
68377;SDS011;55322;48.146;11.516;2022-08-19T02:46:18;9.43;;;5.57;;
68377;SDS011;55322;48.146;11.516;2022-08-19T02:48:50;10.87;;;5.80;;
68377;SDS011;55322;48.146;11.516;2022-08-19T02:51:22;9.82;;;5.50;;
68377;SDS011;55322;48.146;11.516;2022-08-19T02:53:52;9.60;;;5.68;;
68377;SDS011;55322;48.146;11.516;2022-08-19T02:56:17;10.43;;;5.80;;
68377;SDS011;55322;48.146;11.516;2022-08-19T02:58:43;9.63;;;5.55;;
68377;SDS011;55322;48.146;11.516;2022-08-19T03:01:09;10.93;;;5.80;;
68377;SDS011;55322;48.146;11.516;2022-08-19T03:03:36;9.55;;;5.32;;
68377;SDS011;55322;48.146;11.516;2022-08-19T03:06:07;10.80;;;5.78;;
68377;SDS011;55322;48.146;11.516;2022-08-19T03:08:38;9.82;;;5.63;;
68377;SDS011;55322;48.146;11.516;2022-08-19T03:11:04;11.23;;;5.38;;
68377;SDS011;55322;48.146;11.516;2022-08-19T03:13:29;10.20;;;5.03;;
68377;SDS011;55322;48.146;11.516;2022-08-19T03:15:55;9.10;;;5.07;;
68377;SDS011;55322;48.146;11.516;2022-08-19T03:18:20;10.57;;;5.77;;
68377;SDS011;55322;48.146;11.516;2022-08-19T03:20:47;9.45;;;4.97;;
68377;SDS011;55322;48.146;11.516;2022-08-19T03:23:14;9.90;;;5.47;;
68377;SDS011;55322;48.146;11.516;2022-08-19T03:25:41;9.25;;;5.05;;
68377;SDS011;55322;48.146;11.516;2022-08-19T03:28:09;9.82;;;4.82;;
68377;SDS011;55322;48.146;11.516;2022-08-19T03:30:37;8.90;;;4.75;;
68377;SDS011;55322;48.146;11.516;2022-08-19T03:33:04;9.48;;;5.03;;
68377;SDS011;55322;48.146;11.516;2022-08-19T03:35:29;9.13;;;4.83;;
68377;SDS011;55322;48.146;11.516;2022-08-19T03:37:55;9.30;;;4.57;;
68377;SDS011;55322;48.146;11.516;2022-08-19T03:40:21;8.70;;;4.57;;
68377;SDS011;55322;48.146;11.516;2022-08-19T03:42:46;9.87;;;4.60;;
68377;SDS011;55322;48.146;11.516;2022-08-19T03:45:12;9.00;;;4.40;;
68377;SDS011;55322;48.146;11.516;2022-08-19T03:47:37;8.00;;;4.47;;
68377;SDS011;55322;48.146;11.516;2022-08-19T03:50:03;8.95;;;4.60;;
68377;SDS011;55322;48.146;11.516;2022-08-19T03:52:29;9.15;;;4.85;;
68377;SDS011;55322;48.146;11.516;2022-08-19T03:54:55;10.07;;;5.00;;
68377;SDS011;55322;48.146;11.516;2022-08-19T03:57:20;9.03;;;4.80;;
68377;SDS011;55322;48.146;11.516;2022-08-19T03:59:46;10.00;;;4.70;;
68377;SDS011;55322;48.146;11.516;2022-08-19T04:02:11;10.30;;;5.43;;
68377;SDS011;55322;48.146;11.516;2022-08-19T04:04:39;9.25;;;4.85;;
68377;SDS011;55322;48.146;11.516;2022-08-19T04:07:08;10.77;;;4.87;;
68377;SDS011;55322;48.146;11.516;2022-08-19T04:09:34;9.82;;;4.55;;
68377;SDS011;55322;48.146;11.516;2022-08-19T04:12:01;10.82;;;5.68;;
68377;SDS011;55322;48.146;11.516;2022-08-19T04:14:30;11.50;;;6.10;;
68377;SDS011;55322;48.146;11.516;2022-08-19T04:16:56;12.77;;;6.78;;
68377;SDS011;55322;48.146;11.516;2022-08-19T04:19:23;11.43;;;6.20;;
68377;SDS011;55322;48.146;11.516;2022-08-19T04:21:50;11.18;;;6.40;;
68377;SDS011;55322;48.146;11.516;2022-08-19T04:24:18;11.88;;;6.80;;
68377;SDS011;55322;48.146;11.516;2022-08-19T04:26:44;12.00;;;6.77;;
68377;SDS011;55322;48.146;11.516;2022-08-19T04:29:15;11.10;;;6.38;;
68377;SDS011;55322;48.146;11.516;2022-08-19T04:31:43;12.70;;;7.32;;
68377;SDS011;55322;48.146;11.516;2022-08-19T04:34:10;14.63;;;6.50;;
68377;SDS011;55322;48.146;11.516;2022-08-19T04:36:38;12.02;;;6.60;;
68377;SDS011;55322;48.146;11.516;2022-08-19T04:39:09;12.20;;;6.70;;
68377;SDS011;55322;48.146;11.516;2022-08-19T04:41:45;11.60;;;6.57;;
68377;SDS011;55322;48.146;11.516;2022-08-19T04:44:32;12.60;;;6.97;;
68377;SDS011;55322;48.146;11.516;2022-08-19T04:47:00;14.38;;;6.97;;
68377;SDS011;55322;48.146;11.516;2022-08-19T04:49:27;13.35;;;6.95;;
68377;SDS011;55322;48.146;11.516;2022-08-19T04:51:53;14.43;;;7.23;;
68377;SDS011;55322;48.146;11.516;2022-08-19T04:54:19;11.73;;;6.93;;
68377;SDS011;55322;48.146;11.516;2022-08-19T04:56:47;13.17;;;6.70;;
68377;SDS011;55322;48.146;11.516;2022-08-19T04:59:17;10.85;;;6.40;;
68377;SDS011;55322;48.146;11.516;2022-08-19T05:01:44;12.10;;;6.88;;
68377;SDS011;55322;48.146;11.516;2022-08-19T05:04:15;12.70;;;7.00;;
68377;SDS011;55322;48.146;11.516;2022-08-19T05:06:42;13.10;;;6.88;;
68377;SDS011;55322;48.146;11.516;2022-08-19T05:09:08;11.47;;;6.30;;
68377;SDS011;55322;48.146;11.516;2022-08-19T05:11:35;10.70;;;6.00;;
68377;SDS011;55322;48.146;11.516;2022-08-19T05:14:03;11.80;;;6.60;;
68377;SDS011;55322;48.146;11.516;2022-08-19T05:16:29;11.60;;;6.35;;
68377;SDS011;55322;48.146;11.516;2022-08-19T05:18:54;11.40;;;6.07;;
68377;SDS011;55322;48.146;11.516;2022-08-19T05:21:39;12.20;;;6.43;;
68377;SDS011;55322;48.146;11.516;2022-08-19T05:24:24;11.73;;;6.63;;
68377;SDS011;55322;48.146;11.516;2022-08-19T05:26:50;12.77;;;6.50;;
68377;SDS011;55322;48.146;11.516;2022-08-19T05:29:21;11.02;;;6.20;;
68377;SDS011;55322;48.146;11.516;2022-08-19T05:31:48;13.23;;;6.70;;
68377;SDS011;55322;48.146;11.516;2022-08-19T05:34:14;10.63;;;6.45;;
68377;SDS011;55322;48.146;11.516;2022-08-19T05:36:41;11.80;;;6.78;;
68377;SDS011;55322;48.146;11.516;2022-08-19T05:39:11;13.53;;;7.40;;
68377;SDS011;55322;48.146;11.516;2022-08-19T05:41:41;13.60;;;6.35;;
68377;SDS011;55322;48.146;11.516;2022-08-19T05:44:07;13.68;;;6.45;;
68377;SDS011;55322;48.146;11.516;2022-08-19T05:46:34;11.35;;;6.50;;
68377;SDS011;55322;48.146;11.516;2022-08-19T05:49:00;12.77;;;6.60;;
68377;SDS011;55322;48.146;11.516;2022-08-19T05:51:25;12.10;;;6.90;;
68377;SDS011;55322;48.146;11.516;2022-08-19T05:53:51;12.63;;;6.83;;
68377;SDS011;55322;48.146;11.516;2022-08-19T05:56:16;13.07;;;7.13;;
68377;SDS011;55322;48.146;11.516;2022-08-19T05:58:43;12.30;;;7.18;;
68377;SDS011;55322;48.146;11.516;2022-08-19T06:01:11;12.20;;;7.18;;
68377;SDS011;55322;48.146;11.516;2022-08-19T06:03:38;11.60;;;6.53;;
68377;SDS011;55322;48.146;11.516;2022-08-19T06:06:04;11.13;;;6.40;;
68377;SDS011;55322;48.146;11.516;2022-08-19T06:08:32;11.05;;;6.38;;
68377;SDS011;55322;48.146;11.516;2022-08-19T06:10:58;14.77;;;7.95;;
68377;SDS011;55322;48.146;11.516;2022-08-19T06:13:37;14.60;;;9.00;;
68377;SDS011;55322;48.146;11.516;2022-08-19T06:16:03;13.85;;;8.32;;
68377;SDS011;55322;48.146;11.516;2022-08-19T06:18:29;14.63;;;9.25;;
68377;SDS011;55322;48.146;11.516;2022-08-19T06:20:54;14.87;;;8.50;;
68377;SDS011;55322;48.146;11.516;2022-08-19T06:23:20;14.23;;;8.73;;
68377;SDS011;55322;48.146;11.516;2022-08-19T06:25:46;16.05;;;9.32;;
68377;SDS011;55322;48.146;11.516;2022-08-19T06:28:12;14.93;;;9.33;;
68377;SDS011;55322;48.146;11.516;2022-08-19T06:30:37;15.63;;;9.10;;
68377;SDS011;55322;48.146;11.516;2022-08-19T06:33:03;13.87;;;8.63;;
68377;SDS011;55322;48.146;11.516;2022-08-19T06:35:28;17.07;;;9.97;;
68377;SDS011;55322;48.146;11.516;2022-08-19T06:37:54;16.60;;;9.90;;
68377;SDS011;55322;48.146;11.516;2022-08-19T06:40:20;19.37;;;10.10;;
68377;SDS011;55322;48.146;11.516;2022-08-19T06:42:45;18.30;;;10.77;;
68377;SDS011;55322;48.146;11.516;2022-08-19T06:45:11;16.63;;;11.03;;
68377;SDS011;55322;48.146;11.516;2022-08-19T06:47:36;17.60;;;10.70;;
68377;SDS011;55322;48.146;11.516;2022-08-19T06:50:02;17.10;;;10.10;;
68377;SDS011;55322;48.146;11.516;2022-08-19T06:52:37;18.17;;;11.65;;
68377;SDS011;55322;48.146;11.516;2022-08-19T06:55:04;17.25;;;11.25;;
68377;SDS011;55322;48.146;11.516;2022-08-19T06:57:30;18.37;;;11.40;;
68377;SDS011;55322;48.146;11.516;2022-08-19T06:59:57;17.48;;;11.40;;
68377;SDS011;55322;48.146;11.516;2022-08-19T07:02:25;18.30;;;11.70;;
68377;SDS011;55322;48.146;11.516;2022-08-19T07:04:51;17.85;;;11.13;;
68377;SDS011;55322;48.146;11.516;2022-08-19T07:07:17;19.67;;;11.35;;
68377;SDS011;55322;48.146;11.516;2022-08-19T07:09:43;19.83;;;11.80;;
68377;SDS011;55322;48.146;11.516;2022-08-19T07:12:10;18.02;;;11.73;;
68377;SDS011;55322;48.146;11.516;2022-08-19T07:14:38;20.07;;;11.70;;
68377;SDS011;55322;48.146;11.516;2022-08-19T07:17:05;19.42;;;12.07;;
68377;SDS011;55322;48.146;11.516;2022-08-19T07:19:32;19.83;;;12.27;;
68377;SDS011;55322;48.146;11.516;2022-08-19T07:22:00;21.33;;;13.45;;
68377;SDS011;55322;48.146;11.516;2022-08-19T07:24:28;20.75;;;12.57;;
68377;SDS011;55322;48.146;11.516;2022-08-19T07:26:55;20.30;;;12.63;;
68377;SDS011;55322;48.146;11.516;2022-08-19T07:29:25;22.77;;;14.27;;
68377;SDS011;55322;48.146;11.516;2022-08-19T07:31:51;27.17;;;15.95;;
68377;SDS011;55322;48.146;11.516;2022-08-19T07:34:17;25.63;;;15.73;;
68377;SDS011;55322;48.146;11.516;2022-08-19T07:36:43;28.65;;;16.35;;
68377;SDS011;55322;48.146;11.516;2022-08-19T07:39:14;25.60;;;15.43;;
68377;SDS011;55322;48.146;11.516;2022-08-19T07:41:41;25.25;;;15.05;;
68377;SDS011;55322;48.146;11.516;2022-08-19T07:44:07;24.97;;;15.53;;
68377;SDS011;55322;48.146;11.516;2022-08-19T07:46:35;23.38;;;15.57;;
68377;SDS011;55322;48.146;11.516;2022-08-19T07:49:02;25.88;;;15.70;;
68377;SDS011;55322;48.146;11.516;2022-08-19T07:51:29;27.85;;;17.40;;
68377;SDS011;55322;48.146;11.516;2022-08-19T07:53:54;24.13;;;16.03;;
68377;SDS011;55322;48.146;11.516;2022-08-19T07:56:20;26.13;;;16.97;;
68377;SDS011;55322;48.146;11.516;2022-08-19T07:58:48;25.63;;;16.52;;
68377;SDS011;55322;48.146;11.516;2022-08-19T08:01:16;32.53;;;17.08;;
68377;SDS011;55322;48.146;11.516;2022-08-19T08:03:44;27.03;;;16.13;;
68377;SDS011;55322;48.146;11.516;2022-08-19T08:06:28;26.98;;;16.90;;
68377;SDS011;55322;48.146;11.516;2022-08-19T08:09:12;26.60;;;16.85;;
68377;SDS011;55322;48.146;11.516;2022-08-19T08:11:50;27.00;;;16.10;;
68377;SDS011;55322;48.146;11.516;2022-08-19T08:14:21;29.95;;;16.83;;
68377;SDS011;55322;48.146;11.516;2022-08-19T08:16:53;27.13;;;17.00;;
68377;SDS011;55322;48.146;11.516;2022-08-19T08:19:19;31.08;;;16.48;;
68377;SDS011;55322;48.146;11.516;2022-08-19T08:21:46;27.70;;;16.55;;
68377;SDS011;55322;48.146;11.516;2022-08-19T08:24:12;30.40;;;17.63;;
68377;SDS011;55322;48.146;11.516;2022-08-19T08:26:38;28.33;;;17.80;;
68377;SDS011;55322;48.146;11.516;2022-08-19T08:29:04;30.52;;;17.63;;
68377;SDS011;55322;48.146;11.516;2022-08-19T08:31:32;32.10;;;18.83;;
68377;SDS011;55322;48.146;11.516;2022-08-19T08:33:58;33.40;;;19.37;;
68377;SDS011;55322;48.146;11.516;2022-08-19T08:36:24;30.55;;;18.58;;
68377;SDS011;55322;48.146;11.516;2022-08-19T08:38:50;32.83;;;18.73;;
68377;SDS011;55322;48.146;11.516;2022-08-19T08:41:30;33.23;;;19.37;;
68377;SDS011;55322;48.146;11.516;2022-08-19T08:44:02;32.33;;;19.23;;
68377;SDS011;55322;48.146;11.516;2022-08-19T08:46:33;34.83;;;20.38;;
68377;SDS011;55322;48.146;11.516;2022-08-19T08:49:10;36.65;;;20.38;;
68377;SDS011;55322;48.146;11.516;2022-08-19T08:54:33;31.05;;;19.70;;
68377;SDS011;55322;48.146;11.516;2022-08-19T08:57:03;35.17;;;20.37;;
68377;SDS011;55322;48.146;11.516;2022-08-19T08:59:34;34.75;;;20.48;;
68377;SDS011;55322;48.146;11.516;2022-08-19T09:02:03;34.08;;;19.73;;
68377;SDS011;55322;48.146;11.516;2022-08-19T09:04:29;33.50;;;19.67;;
68377;SDS011;55322;48.146;11.516;2022-08-19T09:06:58;33.97;;;20.43;;
68377;SDS011;55322;48.146;11.516;2022-08-19T09:10:04;35.65;;;20.55;;
68377;SDS011;55322;48.146;11.516;2022-08-19T09:15:13;41.73;;;21.17;;
68377;SDS011;55322;48.146;11.516;2022-08-19T09:17:41;39.78;;;21.90;;
68377;SDS011;55322;48.146;11.516;2022-08-19T09:22:34;35.88;;;20.60;;
68377;SDS011;55322;48.146;11.516;2022-08-19T09:25:01;37.65;;;18.98;;
68377;SDS011;55322;48.146;11.516;2022-08-19T09:27:28;35.05;;;19.38;;
68377;SDS011;55322;48.146;11.516;2022-08-19T09:29:54;34.40;;;19.60;;
68377;SDS011;55322;48.146;11.516;2022-08-19T09:32:20;32.92;;;19.80;;
68377;SDS011;55322;48.146;11.516;2022-08-19T09:34:46;35.35;;;20.67;;
68377;SDS011;55322;48.146;11.516;2022-08-19T09:37:12;30.97;;;17.77;;
68377;SDS011;55322;48.146;11.516;2022-08-19T09:39:38;31.33;;;18.35;;
68377;SDS011;55322;48.146;11.516;2022-08-19T09:42:05;29.47;;;17.00;;
68377;SDS011;55322;48.146;11.516;2022-08-19T09:44:36;27.75;;;16.75;;
68377;SDS011;55322;48.146;11.516;2022-08-19T09:47:02;27.52;;;16.52;;
68377;SDS011;55322;48.146;11.516;2022-08-19T09:49:29;28.60;;;16.17;;
68377;SDS011;55322;48.146;11.516;2022-08-19T09:51:54;29.00;;;16.47;;
68377;SDS011;55322;48.146;11.516;2022-08-19T09:54:20;25.40;;;15.57;;
68377;SDS011;55322;48.146;11.516;2022-08-19T09:56:46;28.33;;;15.60;;
68377;SDS011;55322;48.146;11.516;2022-08-19T09:59:12;24.77;;;14.90;;
68377;SDS011;55322;48.146;11.516;2022-08-19T10:01:37;27.83;;;15.87;;
68377;SDS011;55322;48.146;11.516;2022-08-19T10:04:03;28.45;;;16.75;;
68377;SDS011;55322;48.146;11.516;2022-08-19T10:06:36;27.92;;;15.98;;
68377;SDS011;55322;48.146;11.516;2022-08-19T10:09:03;28.15;;;16.45;;
68377;SDS011;55322;48.146;11.516;2022-08-19T10:11:31;25.83;;;14.83;;
68377;SDS011;55322;48.146;11.516;2022-08-19T10:13:57;26.00;;;15.68;;
68377;SDS011;55322;48.146;11.516;2022-08-19T10:16:23;27.40;;;15.90;;
68377;SDS011;55322;48.146;11.516;2022-08-19T10:18:49;26.17;;;15.18;;
68377;SDS011;55322;48.146;11.516;2022-08-19T10:21:18;27.98;;;15.88;;
68377;SDS011;55322;48.146;11.516;2022-08-19T10:23:47;25.02;;;15.80;;
68377;SDS011;55322;48.146;11.516;2022-08-19T10:26:14;28.40;;;15.77;;
68377;SDS011;55322;48.146;11.516;2022-08-19T10:28:41;27.43;;;15.40;;
68377;SDS011;55322;48.146;11.516;2022-08-19T10:31:09;27.58;;;15.57;;
68377;SDS011;55322;48.146;11.516;2022-08-19T10:33:38;23.48;;;13.75;;
68377;SDS011;55322;48.146;11.516;2022-08-19T10:36:08;21.07;;;12.77;;
68377;SDS011;55322;48.146;11.516;2022-08-19T10:38:40;22.10;;;13.10;;
68377;SDS011;55322;48.146;11.516;2022-08-19T10:41:10;24.13;;;13.65;;
68377;SDS011;55322;48.146;11.516;2022-08-19T10:43:40;22.08;;;12.68;;
68377;SDS011;55322;48.146;11.516;2022-08-19T10:46:09;21.20;;;13.18;;
68377;SDS011;55322;48.146;11.516;2022-08-19T10:48:37;20.83;;;12.40;;
68377;SDS011;55322;48.146;11.516;2022-08-19T10:51:03;20.65;;;12.80;;
68377;SDS011;55322;48.146;11.516;2022-08-19T10:53:47;18.30;;;11.07;;
68377;SDS011;55322;48.146;11.516;2022-08-19T10:56:13;17.27;;;10.40;;
68377;SDS011;55322;48.146;11.516;2022-08-19T10:58:57;19.48;;;10.77;;
68377;SDS011;55322;48.146;11.516;2022-08-19T11:01:24;16.00;;;10.63;;
68377;SDS011;55322;48.146;11.516;2022-08-19T11:03:50;16.07;;;10.87;;
68377;SDS011;55322;48.146;11.516;2022-08-19T11:06:15;18.27;;;11.45;;
68377;SDS011;55322;48.146;11.516;2022-08-19T11:08:41;20.13;;;12.07;;
68377;SDS011;55322;48.146;11.516;2022-08-19T11:11:07;18.50;;;12.47;;
68377;SDS011;55322;48.146;11.516;2022-08-19T11:13:34;19.10;;;11.75;;
68377;SDS011;55322;48.146;11.516;2022-08-19T11:16:06;17.70;;;11.48;;
68377;SDS011;55322;48.146;11.516;2022-08-19T11:18:38;18.10;;;11.23;;
68377;SDS011;55322;48.146;11.516;2022-08-19T11:21:09;15.73;;;10.40;;
68377;SDS011;55322;48.146;11.516;2022-08-19T11:23:42;16.38;;;9.88;;
68377;SDS011;55322;48.146;11.516;2022-08-19T11:26:08;12.80;;;7.82;;
68377;SDS011;55322;48.146;11.516;2022-08-19T11:28:33;10.25;;;6.32;;
68377;SDS011;55322;48.146;11.516;2022-08-19T11:30:59;8.03;;;4.30;;
68377;SDS011;55322;48.146;11.516;2022-08-19T11:33:24;8.10;;;3.80;;
68377;SDS011;55322;48.146;11.516;2022-08-19T11:35:51;7.30;;;3.92;;
68377;SDS011;55322;48.146;11.516;2022-08-19T11:38:17;6.70;;;3.53;;
68377;SDS011;55322;48.146;11.516;2022-08-19T11:40:43;6.40;;;3.30;;
68377;SDS011;55322;48.146;11.516;2022-08-19T11:43:09;6.45;;;3.10;;
68377;SDS011;55322;48.146;11.516;2022-08-19T11:45:34;6.67;;;3.20;;
68377;SDS011;55322;48.146;11.516;2022-08-19T11:48:00;6.25;;;2.85;;
68377;SDS011;55322;48.146;11.516;2022-08-19T11:50:26;5.85;;;2.90;;
68377;SDS011;55322;48.146;11.516;2022-08-19T11:52:55;5.90;;;2.83;;
68377;SDS011;55322;48.146;11.516;2022-08-19T11:55:21;6.40;;;2.80;;
68377;SDS011;55322;48.146;11.516;2022-08-19T11:57:47;5.60;;;2.40;;
68377;SDS011;55322;48.146;11.516;2022-08-19T12:00:13;5.00;;;1.90;;
68377;SDS011;55322;48.146;11.516;2022-08-19T12:02:38;4.70;;;1.77;;
68377;SDS011;55322;48.146;11.516;2022-08-19T12:05:04;4.55;;;1.40;;
68377;SDS011;55322;48.146;11.516;2022-08-19T12:07:30;4.85;;;1.70;;
68377;SDS011;55322;48.146;11.516;2022-08-19T12:09:58;4.68;;;1.42;;
68377;SDS011;55322;48.146;11.516;2022-08-19T12:12:24;4.63;;;1.52;;
68377;SDS011;55322;48.146;11.516;2022-08-19T12:14:51;4.40;;;1.47;;
68377;SDS011;55322;48.146;11.516;2022-08-19T12:17:22;4.85;;;1.55;;
68377;SDS011;55322;48.146;11.516;2022-08-19T12:19:48;4.22;;;1.20;;
68377;SDS011;55322;48.146;11.516;2022-08-19T12:22:13;4.50;;;1.10;;
68377;SDS011;55322;48.146;11.516;2022-08-19T12:24:38;4.80;;;1.30;;
68377;SDS011;55322;48.146;11.516;2022-08-19T12:27:04;5.57;;;1.27;;
68377;SDS011;55322;48.146;11.516;2022-08-19T12:29:29;4.53;;;1.23;;
68377;SDS011;55322;48.146;11.516;2022-08-19T12:31:55;4.60;;;1.43;;
68377;SDS011;55322;48.146;11.516;2022-08-19T12:34:27;4.35;;;1.20;;
68377;SDS011;55322;48.146;11.516;2022-08-19T12:36:57;4.25;;;1.20;;
68377;SDS011;55322;48.146;11.516;2022-08-19T12:39:23;5.27;;;1.47;;
68377;SDS011;55322;48.146;11.516;2022-08-19T12:41:49;4.18;;;1.08;;
68377;SDS011;55322;48.146;11.516;2022-08-19T12:44:15;5.30;;;1.45;;
68377;SDS011;55322;48.146;11.516;2022-08-19T12:46:41;4.60;;;1.27;;
68377;SDS011;55322;48.146;11.516;2022-08-19T12:49:07;5.45;;;1.25;;
68377;SDS011;55322;48.146;11.516;2022-08-19T12:51:32;4.27;;;1.10;;
68377;SDS011;55322;48.146;11.516;2022-08-19T12:53:57;5.97;;;1.47;;
68377;SDS011;55322;48.146;11.516;2022-08-19T12:56:23;4.23;;;1.20;;
68377;SDS011;55322;48.146;11.516;2022-08-19T12:58:48;4.50;;;1.20;;
68377;SDS011;55322;48.146;11.516;2022-08-19T13:01:15;4.70;;;1.50;;
68377;SDS011;55322;48.146;11.516;2022-08-19T13:03:41;4.82;;;1.50;;
68377;SDS011;55322;48.146;11.516;2022-08-19T13:06:08;4.50;;;1.37;;
68377;SDS011;55322;48.146;11.516;2022-08-19T13:08:34;4.53;;;1.40;;
68377;SDS011;55322;48.146;11.516;2022-08-19T13:11:06;4.70;;;1.52;;
68377;SDS011;55322;48.146;11.516;2022-08-19T13:13:32;6.22;;;1.40;;
68377;SDS011;55322;48.146;11.516;2022-08-19T13:16:00;4.77;;;1.37;;
68377;SDS011;55322;48.146;11.516;2022-08-19T13:18:27;4.47;;;1.40;;
68377;SDS011;55322;48.146;11.516;2022-08-19T13:20:53;6.00;;;1.50;;
68377;SDS011;55322;48.146;11.516;2022-08-19T13:23:18;4.70;;;1.40;;
68377;SDS011;55322;48.146;11.516;2022-08-19T13:25:43;4.20;;;1.23;;
68377;SDS011;55322;48.146;11.516;2022-08-19T13:28:09;5.13;;;1.50;;
68377;SDS011;55322;48.146;11.516;2022-08-19T13:30:34;4.80;;;1.30;;
68377;SDS011;55322;48.146;11.516;2022-08-19T13:33:18;4.50;;;1.38;;
68377;SDS011;55322;48.146;11.516;2022-08-19T13:35:53;4.60;;;1.50;;
68377;SDS011;55322;48.146;11.516;2022-08-19T13:38:22;4.57;;;1.48;;
68377;SDS011;55322;48.146;11.516;2022-08-19T13:40:49;5.05;;;1.75;;
68377;SDS011;55322;48.146;11.516;2022-08-19T13:43:17;5.40;;;1.60;;
68377;SDS011;55322;48.146;11.516;2022-08-19T13:45:45;5.85;;;1.63;;
68377;SDS011;55322;48.146;11.516;2022-08-19T13:48:10;4.90;;;1.70;;
68377;SDS011;55322;48.146;11.516;2022-08-19T13:50:40;4.93;;;1.70;;
68377;SDS011;55322;48.146;11.516;2022-08-19T13:53:09;4.35;;;1.40;;
68377;SDS011;55322;48.146;11.516;2022-08-19T13:55:39;4.97;;;1.70;;
68377;SDS011;55322;48.146;11.516;2022-08-19T13:58:06;5.03;;;1.60;;
68377;SDS011;55322;48.146;11.516;2022-08-19T14:00:35;5.18;;;2.05;;
68377;SDS011;55322;48.146;11.516;2022-08-19T14:03:03;5.47;;;2.28;;
68377;SDS011;55322;48.146;11.516;2022-08-19T14:05:29;6.23;;;2.30;;
68377;SDS011;55322;48.146;11.516;2022-08-19T14:07:55;6.40;;;2.60;;
68377;SDS011;55322;48.146;11.516;2022-08-19T14:10:21;6.07;;;2.25;;
68377;SDS011;55322;48.146;11.516;2022-08-19T14:12:48;5.95;;;2.40;;
68377;SDS011;55322;48.146;11.516;2022-08-19T14:15:14;6.20;;;2.53;;
68377;SDS011;55322;48.146;11.516;2022-08-19T14:17:41;5.68;;;2.53;;
68377;SDS011;55322;48.146;11.516;2022-08-19T14:20:09;5.50;;;2.55;;
68377;SDS011;55322;48.146;11.516;2022-08-19T14:22:38;6.18;;;2.50;;
68377;SDS011;55322;48.146;11.516;2022-08-19T14:25:06;7.30;;;2.47;;
68377;SDS011;55322;48.146;11.516;2022-08-19T14:27:33;5.60;;;2.30;;
68377;SDS011;55322;48.146;11.516;2022-08-19T14:29:59;5.55;;;2.45;;
68377;SDS011;55322;48.146;11.516;2022-08-19T14:32:25;7.07;;;2.40;;
68377;SDS011;55322;48.146;11.516;2022-08-19T14:34:51;5.30;;;2.20;;